Time;durP1;ratioP1;P1;durP2;ratioP2;P2;SDS_P1;SDS_P2;PMS_P1;PMS_P2;Temp;Humidity;BMP_temperature;BMP_pressure;BME280_temperature;BME280_humidity;BME280_pressure;Samples;Min_cycle;Max_cycle;Signal;HPM_P1;HPM_P2
2024/01/27 00:01:16;;;;;;;3.93;2.60;;;;;;;;;;5051568;28;20237;-89
2024/01/27 00:03:43;;;;;;;7.63;2.30;;;;;;;;;;5053884;28;20205;-90
2024/01/27 00:06:10;;;;;;;6.93;2.57;;;;;;;;;;5057221;28;20244;-89
2024/01/27 00:08:47;;;;;;;4.20;2.50;;;;;;;;;;5049113;28;20201;-89
2024/01/27 00:11:15;;;;;;;3.87;2.60;;;;;;;;;;5049167;28;20232;-89
2024/01/27 00:13:42;;;;;;;2.83;2.30;;;;;;;;;;5049674;28;20207;-89
2024/01/27 00:16:09;;;;;;;4.13;2.20;;;;;;;;;;5056388;28;20222;-89
2024/01/27 00:18:37;;;;;;;3.30;2.30;;;;;;;;;;5048811;28;20204;-89
2024/01/27 00:21:04;;;;;;;3.33;2.40;;;;;;;;;;5048265;28;20241;-89
2024/01/27 00:23:32;;;;;;;4.63;2.63;;;;;;;;;;5048969;28;20208;-90
2024/01/27 00:26:00;;;;;;;4.03;2.50;;;;;;;;;;5048524;28;20815;-89
2024/01/27 00:28:27;;;;;;;2.40;2.20;;;;;;;;;;5056927;28;20216;-89
2024/01/27 00:30:54;;;;;;;3.90;2.20;;;;;;;;;;5057005;28;20238;-89
2024/01/27 00:33:21;;;;;;;7.67;2.60;;;;;;;;;;5048456;28;20221;-89
2024/01/27 00:35:48;;;;;;;3.70;1.90;;;;;;;;;;5048001;28;20260;-89
2024/01/27 00:38:15;;;;;;;6.07;2.90;;;;;;;;;;5048765;28;20202;-89
2024/01/27 00:40:42;;;;;;;6.43;2.60;;;;;;;;;;5048817;28;20234;-89
2024/01/27 00:43:11;;;;;;;4.93;2.70;;;;;;;;;;5056560;28;20264;-89
2024/01/27 00:45:38;;;;;;;6.17;2.63;;;;;;;;;;5049955;28;20233;-89
2024/01/27 00:48:06;;;;;;;3.80;2.17;;;;;;;;;;5056408;28;20690;-90
2024/01/27 00:50:33;;;;;;;6.87;2.80;;;;;;;;;;5055988;28;20901;-89
2024/01/27 00:53:00;;;;;;;4.10;2.60;;;;;;;;;;5038485;28;20224;-89
2024/01/27 00:55:27;;;;;;;2.77;2.27;;;;;;;;;;5048911;28;20663;-89
2024/01/27 00:57:54;;;;;;;8.23;2.87;;;;;;;;;;5056513;28;20208;-89
2024/01/27 01:00:23;;;;;;;4.37;2.57;;;;;;;;;;5057292;28;20282;-88
2024/01/27 01:02:50;;;;;;;7.60;2.70;;;;;;;;;;5056379;28;20709;-89
2024/01/27 01:05:17;;;;;;;3.27;2.77;;;;;;;;;;5051916;28;20220;-89
2024/01/27 01:07:44;;;;;;;5.10;2.57;;;;;;;;;;5052263;28;20262;-89
2024/01/27 01:10:11;;;;;;;4.83;2.80;;;;;;;;;;5047276;28;20195;-89
2024/01/27 01:12:38;;;;;;;4.73;2.30;;;;;;;;;;5057330;28;20225;-88
2024/01/27 01:15:06;;;;;;;4.60;2.50;;;;;;;;;;5048328;28;20249;-88
2024/01/27 01:17:34;;;;;;;4.03;3.30;;;;;;;;;;5048368;28;20287;-89
2024/01/27 01:20:01;;;;;;;5.43;2.83;;;;;;;;;;5047588;28;20707;-89
2024/01/27 01:22:28;;;;;;;3.63;2.57;;;;;;;;;;5055504;28;20350;-89
2024/01/27 01:24:55;;;;;;;5.57;2.73;;;;;;;;;;5047533;28;20649;-88
2024/01/27 01:27:26;;;;;;;3.93;2.60;;;;;;;;;;5049323;28;20791;-88
2024/01/27 01:29:53;;;;;;;7.80;2.63;;;;;;;;;;5055635;28;20556;-89
2024/01/27 01:32:20;;;;;;;4.90;3.00;;;;;;;;;;5047145;28;20235;-89
2024/01/27 01:34:49;;;;;;;2.53;2.40;;;;;;;;;;5048179;28;20260;-89
2024/01/27 01:37:16;;;;;;;7.33;3.13;;;;;;;;;;5055042;28;20225;-89
2024/01/27 01:39:43;;;;;;;3.40;2.90;;;;;;;;;;5048557;28;20210;-88
2024/01/27 01:42:10;;;;;;;3.30;2.90;;;;;;;;;;5052369;28;20243;-89
2024/01/27 01:44:37;;;;;;;4.93;3.57;;;;;;;;;;5043651;28;20209;-89
2024/01/27 01:47:05;;;;;;;4.80;3.20;;;;;;;;;;5053269;28;20236;-89
2024/01/27 01:49:32;;;;;;;5.03;3.23;;;;;;;;;;5050163;28;20206;-89
2024/01/27 01:52:01;;;;;;;4.43;3.13;;;;;;;;;;5043978;28;20695;-89
2024/01/27 01:54:28;;;;;;;2.83;2.63;;;;;;;;;;5048781;28;20198;-89
2024/01/27 01:56:56;;;;;;;6.00;2.93;;;;;;;;;;5054482;28;20643;-89
2024/01/27 01:59:28;;;;;;;3.60;2.67;;;;;;;;;;5055502;28;20281;-90
2024/01/27 02:01:55;;;;;;;6.30;3.40;;;;;;;;;;5046909;28;20316;-89
2024/01/27 02:04:22;;;;;;;5.40;3.23;;;;;;;;;;5054653;28;20735;-89
2024/01/27 02:06:49;;;;;;;3.33;2.70;;;;;;;;;;5054292;28;20234;-89
2024/01/27 02:09:17;;;;;;;8.57;3.13;;;;;;;;;;5057720;28;20210;-89
2024/01/27 02:11:44;;;;;;;3.97;2.80;;;;;;;;;;5059175;28;20237;-89
2024/01/27 02:14:12;;;;;;;4.40;2.80;;;;;;;;;;5044081;28;20206;-89
2024/01/27 02:16:39;;;;;;;6.23;3.27;;;;;;;;;;5042543;28;20231;-89
2024/01/27 02:19:06;;;;;;;4.77;3.23;;;;;;;;;;5044402;28;20241;-89
2024/01/27 02:21:33;;;;;;;6.30;3.20;;;;;;;;;;5045891;28;20244;-89
2024/01/27 02:24:00;;;;;;;5.77;3.00;;;;;;;;;;5046324;28;20294;-89
2024/01/27 02:26:29;;;;;;;4.70;3.23;;;;;;;;;;5049781;28;20227;-89
2024/01/27 02:28:56;;;;;;;7.63;3.27;;;;;;;;;;5042822;28;20198;-88
2024/01/27 02:31:23;;;;;;;3.20;2.50;;;;;;;;;;5045644;28;20234;-89
2024/01/27 02:33:50;;;;;;;8.33;2.90;;;;;;;;;;5046222;28;20198;-89
2024/01/27 02:36:17;;;;;;;4.67;3.10;;;;;;;;;;5044635;28;20230;-89
2024/01/27 02:38:44;;;;;;;3.43;3.13;;;;;;;;;;5054376;28;20259;-89
2024/01/27 02:41:11;;;;;;;2.77;2.57;;;;;;;;;;5043491;28;20245;-89
2024/01/27 02:43:40;;;;;;;4.57;2.93;;;;;;;;;;5040654;28;20678;-89
2024/01/27 02:46:07;;;;;;;4.50;3.00;;;;;;;;;;5043814;28;20238;-89
2024/01/27 02:48:34;;;;;;;4.60;2.63;;;;;;;;;;5039733;28;20214;-89
2024/01/27 02:51:23;;;;;;;3.60;3.23;;;;;;;;;;5038369;28;20239;-88
2024/01/27 02:53:50;;;;;;;7.43;3.13;;;;;;;;;;5054614;28;20308;-89
2024/01/27 02:56:17;;;;;;;9.30;3.30;;;;;;;;;;5045458;28;20237;-89
2024/01/27 02:58:45;;;;;;;4.10;3.33;;;;;;;;;;5053735;28;20210;-88
2024/01/27 03:01:12;;;;;;;5.63;3.20;;;;;;;;;;5043394;28;20735;-89
2024/01/27 03:03:39;;;;;;;5.40;2.70;;;;;;;;;;5042125;28;20198;-89
2024/01/27 03:06:07;;;;;;;2.93;2.63;;;;;;;;;;5051421;28;20249;-89
2024/01/27 03:08:34;;;;;;;4.50;3.00;;;;;;;;;;5048710;28;20589;-89
2024/01/27 03:11:01;;;;;;;3.50;2.83;;;;;;;;;;5034842;28;20242;-88
2024/01/27 03:13:28;;;;;;;6.57;3.30;;;;;;;;;;5049508;28;20195;-89
2024/01/27 03:15:56;;;;;;;6.23;3.30;;;;;;;;;;5041326;28;20641;-89
2024/01/27 03:18:24;;;;;;;5.27;3.00;;;;;;;;;;5034434;28;20638;-88
2024/01/27 03:20:51;;;;;;;10.80;3.17;;;;;;;;;;5052838;28;20233;-89
2024/01/27 03:23:18;;;;;;;4.20;3.50;;;;;;;;;;5045707;28;20217;-89
2024/01/27 03:25:45;;;;;;;3.23;2.80;;;;;;;;;;5046422;28;20708;-88
2024/01/27 03:28:12;;;;;;;3.53;3.23;;;;;;;;;;5048232;28;20190;-89
2024/01/27 03:30:39;;;;;;;3.10;2.80;;;;;;;;;;5048653;28;20270;-89
2024/01/27 03:33:10;;;;;;;6.17;2.93;;;;;;;;;;5052309;28;20208;-88
2024/01/27 03:35:38;;;;;;;4.27;2.80;;;;;;;;;;5040735;28;20254;-89
2024/01/27 03:38:05;;;;;;;3.87;2.53;;;;;;;;;;5042733;28;20240;-89
2024/01/27 03:40:32;;;;;;;4.67;3.07;;;;;;;;;;5052674;28;20233;-88
2024/01/27 03:42:59;;;;;;;5.70;2.20;;;;;;;;;;5047302;28;20284;-89
2024/01/27 03:45:26;;;;;;;3.10;2.53;;;;;;;;;;5052861;28;20629;-88
2024/01/27 03:47:53;;;;;;;5.67;3.00;;;;;;;;;;5045030;28;20193;-88
2024/01/27 03:50:21;;;;;;;7.60;3.03;;;;;;;;;;5052596;28;20217;-88
2024/01/27 03:52:48;;;;;;;3.33;2.80;;;;;;;;;;5046355;28;20230;-89
2024/01/27 03:55:15;;;;;;;11.13;3.13;;;;;;;;;;5043209;28;20210;-89
2024/01/27 03:57:42;;;;;;;3.80;2.57;;;;;;;;;;5053127;28;20209;-89
2024/01/27 04:00:12;;;;;;;4.23;3.10;;;;;;;;;;5043458;28;20539;-89
2024/01/27 04:02:39;;;;;;;7.67;2.80;;;;;;;;;;5041570;28;20229;-89
2024/01/27 04:05:06;;;;;;;3.70;2.87;;;;;;;;;;5041714;28;20226;-88
2024/01/27 04:07:35;;;;;;;2.90;2.70;;;;;;;;;;5040253;28;20233;-89
2024/01/27 04:10:03;;;;;;;2.57;2.37;;;;;;;;;;5042011;28;20205;-84
2024/01/27 04:12:30;;;;;;;8.73;3.20;;;;;;;;;;5053087;28;20248;-88
2024/01/27 04:14:59;;;;;;;7.50;2.57;;;;;;;;;;5044866;28;20209;-88
2024/01/27 04:17:26;;;;;;;2.03;1.93;;;;;;;;;;5052353;28;20222;-89
2024/01/27 04:19:54;;;;;;;7.23;2.70;;;;;;;;;;5052496;28;20233;-88
2024/01/27 04:22:21;;;;;;;4.83;2.60;;;;;;;;;;5035572;28;20245;-88
2024/01/27 04:24:49;;;;;;;4.90;2.87;;;;;;;;;;5053398;28;20266;-88
2024/01/27 04:27:16;;;;;;;3.90;2.40;;;;;;;;;;5045622;28;20262;-88
2024/01/27 04:29:43;;;;;;;6.50;2.97;;;;;;;;;;5054362;28;20202;-88
2024/01/27 04:32:10;;;;;;;3.10;2.67;;;;;;;;;;5043097;28;20239;-88
2024/01/27 04:34:37;;;;;;;3.23;2.77;;;;;;;;;;5041342;28;20213;-89
2024/01/27 04:37:05;;;;;;;3.70;2.63;;;;;;;;;;5040892;28;20231;-88
2024/01/27 04:39:32;;;;;;;6.33;2.83;;;;;;;;;;5045279;28;20736;-89
2024/01/27 04:42:00;;;;;;;5.40;2.90;;;;;;;;;;5052300;28;20238;-89
2024/01/27 04:44:27;;;;;;;2.93;2.70;;;;;;;;;;5045161;28;20198;-89
2024/01/27 04:46:54;;;;;;;4.23;3.07;;;;;;;;;;5045408;28;20304;-88
2024/01/27 04:49:21;;;;;;;6.10;3.33;;;;;;;;;;5056509;28;20657;-89
2024/01/27 04:51:48;;;;;;;3.23;2.37;;;;;;;;;;5055606;28;20244;-89
2024/01/27 04:54:15;;;;;;;10.07;3.40;;;;;;;;;;5048057;28;20236;-89
2024/01/27 04:56:43;;;;;;;4.97;2.97;;;;;;;;;;5055942;28;20233;-88
2024/01/27 04:59:11;;;;;;;5.53;2.67;;;;;;;;;;5056018;28;20209;-89
2024/01/27 05:01:38;;;;;;;3.67;2.87;;;;;;;;;;5056579;28;20669;-89
2024/01/27 05:04:05;;;;;;;4.30;2.90;;;;;;;;;;5055855;28;20347;-89
2024/01/27 05:06:32;;;;;;;4.83;2.80;;;;;;;;;;5048022;28;20229;-89
2024/01/27 05:08:59;;;;;;;5.63;2.77;;;;;;;;;;5056087;28;20214;-89
2024/01/27 05:11:27;;;;;;;4.77;2.57;;;;;;;;;;5055519;28;20260;-89
2024/01/27 05:13:54;;;;;;;6.93;3.03;;;;;;;;;;5056139;28;20237;-89
2024/01/27 05:16:23;;;;;;;7.40;3.03;;;;;;;;;;5055681;28;20234;-89
2024/01/27 05:18:50;;;;;;;5.60;3.00;;;;;;;;;;5055978;28;20556;-89
2024/01/27 05:21:17;;;;;;;4.67;3.23;;;;;;;;;;5055307;28;20609;-89
2024/01/27 05:23:44;;;;;;;10.13;4.00;;;;;;;;;;5055906;28;20206;-90
2024/01/27 05:26:11;;;;;;;3.93;2.80;;;;;;;;;;5055334;28;20233;-89
2024/01/27 05:28:39;;;;;;;8.10;4.00;;;;;;;;;;5055932;28;20213;-89
2024/01/27 05:31:08;;;;;;;24.67;10.47;;;;;;;;;;5055445;28;20244;-89
2024/01/27 05:33:36;;;;;;;14.30;6.73;;;;;;;;;;5056115;28;20241;-90
2024/01/27 05:36:03;;;;;;;12.47;6.50;;;;;;;;;;5055087;28;20233;-89
2024/01/27 05:38:31;;;;;;;6.43;3.60;;;;;;;;;;5055004;28;20220;-89
2024/01/27 05:40:58;;;;;;;3.60;3.30;;;;;;;;;;5048529;28;20271;-90
2024/01/27 05:43:25;;;;;;;2.63;2.53;;;;;;;;;;5054253;28;20221;-89
2024/01/27 05:45:53;;;;;;;4.23;3.13;;;;;;;;;;5054261;28;20230;-89
2024/01/27 05:48:20;;;;;;;2.97;2.73;;;;;;;;;;5055127;28;20256;-89
2024/01/27 05:50:56;;;;;;;3.63;3.30;;;;;;;;;;5055510;28;20226;-89
2024/01/27 05:53:23;;;;;;;5.50;2.90;;;;;;;;;;5055923;28;20197;-89
2024/01/27 05:55:50;;;;;;;4.20;3.50;;;;;;;;;;5055074;28;20238;-89
2024/01/27 05:58:17;;;;;;;3.07;2.70;;;;;;;;;;5054841;28;20202;-89
2024/01/27 06:00:44;;;;;;;5.87;3.60;;;;;;;;;;5055352;28;20233;-89
2024/01/27 06:03:11;;;;;;;6.93;3.27;;;;;;;;;;5055506;28;20205;-89
2024/01/27 06:05:38;;;;;;;5.97;3.20;;;;;;;;;;5046859;28;20256;-89
2024/01/27 06:08:08;;;;;;;3.73;2.90;;;;;;;;;;5055237;28;20233;-89
2024/01/27 06:10:36;;;;;;;7.07;3.80;;;;;;;;;;5054646;28;20236;-89
2024/01/27 06:13:03;;;;;;;6.80;4.00;;;;;;;;;;5055086;28;20270;-89
2024/01/27 06:15:30;;;;;;;5.23;3.80;;;;;;;;;;5054514;28;20233;-89
2024/01/27 06:17:57;;;;;;;5.47;3.27;;;;;;;;;;5055156;28;20660;-88
2024/01/27 06:20:24;;;;;;;3.57;2.97;;;;;;;;;;5054452;28;20233;-89
2024/01/27 06:22:52;;;;;;;5.27;3.60;;;;;;;;;;5055428;28;20232;-88
2024/01/27 06:25:20;;;;;;;3.90;3.07;;;;;;;;;;5055087;28;20262;-88
2024/01/27 06:27:48;;;;;;;5.33;4.17;;;;;;;;;;5055256;28;20226;-89
2024/01/27 06:30:34;;;;;;;11.97;4.00;;;;;;;;;;5054627;28;20292;-88
2024/01/27 06:33:01;;;;;;;5.57;3.43;;;;;;;;;;5054936;28;20232;-86
2024/01/27 06:35:28;;;;;;;7.37;3.73;;;;;;;;;;5053865;28;20238;-86
2024/01/27 06:37:55;;;;;;;8.17;3.40;;;;;;;;;;5053875;28;20213;-85
2024/01/27 06:40:23;;;;;;;7.80;3.40;;;;;;;;;;5052334;28;20690;-84
2024/01/27 06:42:50;;;;;;;4.97;3.50;;;;;;;;;;5052805;28;20237;-82
2024/01/27 06:45:17;;;;;;;4.77;3.87;;;;;;;;;;5052436;28;20270;-82
2024/01/27 06:47:44;;;;;;;5.83;5.23;;;;;;;;;;5053015;28;20229;-83
2024/01/27 06:50:13;;;;;;;6.43;3.87;;;;;;;;;;5047268;28;20717;-88
2024/01/27 06:52:40;;;;;;;3.20;3.00;;;;;;;;;;5045634;28;20315;-82
2024/01/27 06:55:10;;;;;;;5.40;3.43;;;;;;;;;;5052776;28;20226;-87
2024/01/27 06:57:40;;;;;;;6.47;2.73;;;;;;;;;;5053474;28;20202;-84
2024/01/27 07:00:08;;;;;;;4.50;3.70;;;;;;;;;;5052911;28;20205;-85
2024/01/27 07:02:35;;;;;;;7.80;4.30;;;;;;;;;;5053391;28;20624;-87
2024/01/27 07:05:02;;;;;;;7.33;3.10;;;;;;;;;;5053218;28;20209;-82
2024/01/27 07:07:30;;;;;;;5.13;3.63;;;;;;;;;;5053319;28;20730;-86
2024/01/27 07:09:57;;;;;;;8.00;4.30;;;;;;;;;;5059197;28;20217;-88
2024/01/27 07:12:24;;;;;;;9.17;4.20;;;;;;;;;;5057561;28;20227;-87
2024/01/27 07:14:54;;;;;;;4.73;4.03;;;;;;;;;;5058182;28;20802;-87
2024/01/27 07:17:21;;;;;;;7.43;3.37;;;;;;;;;;5049615;28;20229;-87
2024/01/27 07:19:48;;;;;;;6.63;3.63;;;;;;;;;;5054752;28;20220;-87
2024/01/27 07:22:15;;;;;;;6.53;3.43;;;;;;;;;;5052873;28;20733;-85
2024/01/27 07:24:42;;;;;;;5.33;3.83;;;;;;;;;;5053126;28;20599;-85
2024/01/27 07:27:11;;;;;;;4.83;3.67;;;;;;;;;;5052456;28;20225;-85
2024/01/27 07:29:38;;;;;;;9.33;3.10;;;;;;;;;;5052773;28;20210;-84
2024/01/27 07:32:13;;;;;;;7.83;3.10;;;;;;;;;;5044747;28;20241;-85
2024/01/27 07:34:40;;;;;;;3.43;2.90;;;;;;;;;;5033033;28;20197;-85
2024/01/27 07:37:07;;;;;;;3.70;3.40;;;;;;;;;;5049347;28;20233;-86
2024/01/27 07:39:35;;;;;;;6.73;4.30;;;;;;;;;;5053848;28;20289;-85
2024/01/27 07:42:02;;;;;;;4.17;3.70;;;;;;;;;;5055873;28;20637;-85
2024/01/27 07:44:29;;;;;;;5.40;3.60;;;;;;;;;;5052425;28;20212;-85
2024/01/27 07:46:56;;;;;;;3.70;3.40;;;;;;;;;;5051971;28;20234;-85
2024/01/27 07:49:25;;;;;;;8.83;4.03;;;;;;;;;;5052059;28;20205;-85
2024/01/27 07:51:52;;;;;;;8.27;3.73;;;;;;;;;;5052235;28;20232;-88
2024/01/27 07:54:19;;;;;;;5.80;3.00;;;;;;;;;;5052992;28;20212;-85
2024/01/27 07:56:47;;;;;;;4.30;3.23;;;;;;;;;;5052639;28;20283;-85
2024/01/27 07:59:15;;;;;;;5.37;3.57;;;;;;;;;;5044464;28;20200;-85
2024/01/27 08:01:42;;;;;;;7.70;4.10;;;;;;;;;;5052618;28;20234;-85
2024/01/27 08:04:09;;;;;;;5.47;4.43;;;;;;;;;;5053098;28;20220;-85
2024/01/27 08:06:47;;;;;;;4.80;4.40;;;;;;;;;;5052257;28;20236;-85
2024/01/27 08:09:14;;;;;;;5.67;3.33;;;;;;;;;;5057173;28;20267;-85
2024/01/27 08:11:41;;;;;;;7.80;4.10;;;;;;;;;;5052680;28;20243;-85
2024/01/27 08:14:08;;;;;;;5.27;3.70;;;;;;;;;;5052855;28;20212;-83
2024/01/27 08:16:35;;;;;;;8.40;5.00;;;;;;;;;;5051390;28;20821;-86
2024/01/27 08:19:02;;;;;;;6.23;4.70;;;;;;;;;;5052854;28;20763;-86
2024/01/27 08:21:29;;;;;;;4.67;4.23;;;;;;;;;;5052732;28;20240;-86
2024/01/27 08:23:57;;;;;;;6.87;4.80;;;;;;;;;;5056648;28;20568;-85
2024/01/27 08:26:24;;;;;;;13.47;6.00;;;;;;;;;;5055813;28;20233;-85
2024/01/27 08:28:51;;;;;;;5.77;4.27;;;;;;;;;;5056466;28;20222;-85
2024/01/27 08:31:19;;;;;;;13.77;7.03;;;;;;;;;;5055984;28;20241;-85
2024/01/27 08:33:46;;;;;;;10.53;5.47;;;;;;;;;;5056718;28;20216;-86
2024/01/27 08:36:14;;;;;;;8.63;4.90;;;;;;;;;;5055664;28;20235;-85
2024/01/27 08:38:41;;;;;;;6.47;4.47;;;;;;;;;;5047610;28;20209;-86
2024/01/27 08:41:10;;;;;;;20.33;5.70;;;;;;;;;;5055570;28;20239;-85
2024/01/27 08:43:37;;;;;;;10.80;4.87;;;;;;;;;;5056065;28;20219;-86
2024/01/27 08:46:04;;;;;;;4.33;3.93;;;;;;;;;;5055744;28;20244;-86
2024/01/27 08:48:31;;;;;;;9.03;4.30;;;;;;;;;;5055905;28;20256;-86
2024/01/27 08:50:58;;;;;;;10.90;4.50;;;;;;;;;;5055273;28;20253;-85
2024/01/27 08:53:25;;;;;;;8.17;4.60;;;;;;;;;;5057446;28;20209;-85
2024/01/27 08:55:52;;;;;;;6.07;4.10;;;;;;;;;;5056235;28;20233;-85
2024/01/27 08:58:20;;;;;;;6.07;4.00;;;;;;;;;;5057124;28;20205;-87
2024/01/27 09:00:48;;;;;;;13.63;4.63;;;;;;;;;;5055699;28;20233;-86
2024/01/27 09:03:15;;;;;;;7.90;4.10;;;;;;;;;;5057930;28;20211;-85
2024/01/27 09:05:43;;;;;;;5.10;4.03;;;;;;;;;;5055927;28;20227;-86
2024/01/27 09:08:11;;;;;;;4.37;3.47;;;;;;;;;;5056464;28;20243;-86
2024/01/27 09:10:38;;;;;;;3.50;3.20;;;;;;;;;;5055901;28;20247;-86
2024/01/27 09:13:05;;;;;;;13.17;4.33;;;;;;;;;;5056222;28;20241;-85
2024/01/27 09:15:33;;;;;;;5.40;3.50;;;;;;;;;;5055439;28;20332;-85
2024/01/27 09:18:00;;;;;;;8.83;3.83;;;;;;;;;;5055567;28;20209;-86
2024/01/27 09:20:28;;;;;;;8.50;4.33;;;;;;;;;;5054914;28;20233;-86
2024/01/27 09:22:55;;;;;;;7.83;4.00;;;;;;;;;;5050687;28;20227;-86
2024/01/27 09:25:24;;;;;;;6.70;4.47;;;;;;;;;;5044209;28;20332;-87
2024/01/27 09:27:51;;;;;;;7.00;4.87;;;;;;;;;;5055931;28;20232;-86
2024/01/27 09:30:19;;;;;;;6.30;4.77;;;;;;;;;;5055349;28;20556;-85
2024/01/27 09:32:47;;;;;;;11.63;5.07;;;;;;;;;;5051269;28;20292;-86
2024/01/27 09:35:14;;;;;;;12.23;5.13;;;;;;;;;;5051024;28;20206;-86
2024/01/27 09:37:45;;;;;;;12.53;4.63;;;;;;;;;;5055810;28;20702;-86
2024/01/27 09:40:13;;;;;;;13.83;5.83;;;;;;;;;;5068547;28;20217;-85
2024/01/27 09:42:40;;;;;;;4.90;4.40;;;;;;;;;;5073150;28;20687;-85
2024/01/27 09:45:07;;;;;;;8.17;5.60;;;;;;;;;;5059036;28;20194;-85
2024/01/27 09:47:36;;;;;;;9.07;4.73;;;;;;;;;;5055748;28;20222;-86
2024/01/27 09:50:04;;;;;;;5.67;4.23;;;;;;;;;;5046786;28;20281;-83
2024/01/27 09:52:31;;;;;;;10.10;4.00;;;;;;;;;;5055901;28;20233;-87
2024/01/27 09:54:58;;;;;;;9.60;4.80;;;;;;;;;;5055588;28;20202;-87
2024/01/27 09:57:25;;;;;;;11.67;5.30;;;;;;;;;;5054407;28;20233;-85
2024/01/27 09:59:53;;;;;;;13.90;5.10;;;;;;;;;;5055131;28;20202;-86
2024/01/27 10:02:20;;;;;;;6.60;4.97;;;;;;;;;;5054367;28;20312;-86
2024/01/27 10:04:49;;;;;;;9.63;4.80;;;;;;;;;;5054958;28;20194;-86
2024/01/27 10:07:17;;;;;;;9.73;4.90;;;;;;;;;;5053610;28;20226;-87
2024/01/27 10:09:44;;;;;;;6.43;4.40;;;;;;;;;;5054500;28;20907;-87
2024/01/27 10:12:13;;;;;;;10.53;5.40;;;;;;;;;;5054127;28;20229;-86
2024/01/27 10:14:41;;;;;;;6.23;4.40;;;;;;;;;;5054621;28;20210;-87
2024/01/27 10:17:11;;;;;;;9.77;4.37;;;;;;;;;;5054141;28;20737;-87
2024/01/27 10:19:38;;;;;;;11.37;4.03;;;;;;;;;;5054044;28;20684;-86
2024/01/27 10:22:05;;;;;;;8.10;3.73;;;;;;;;;;5053870;28;20234;-87
2024/01/27 10:24:35;;;;;;;5.23;3.37;;;;;;;;;;5054549;28;20206;-86
2024/01/27 10:27:03;;;;;;;8.93;3.27;;;;;;;;;;5053743;28;20787;-87
2024/01/27 10:29:30;;;;;;;6.27;3.37;;;;;;;;;;5053716;28;20226;-86
2024/01/27 10:31:57;;;;;;;8.47;3.47;;;;;;;;;;5049177;28;20234;-87
2024/01/27 10:34:24;;;;;;;9.37;3.40;;;;;;;;;;5051031;28;20214;-86
2024/01/27 10:36:51;;;;;;;9.80;3.53;;;;;;;;;;5053828;28;20229;-87
2024/01/27 10:39:20;;;;;;;6.07;3.00;;;;;;;;;;5054387;28;20700;-87
2024/01/27 10:41:48;;;;;;;8.77;3.83;;;;;;;;;;5045625;28;20240;-87
2024/01/27 10:44:17;;;;;;;4.70;2.67;;;;;;;;;;5053871;28;20202;-87
2024/01/27 10:46:45;;;;;;;14.10;3.07;;;;;;;;;;5053602;28;20221;-87
2024/01/27 10:49:13;;;;;;;6.77;3.70;;;;;;;;;;5053578;28;20222;-87
2024/01/27 10:51:44;;;;;;;9.17;3.37;;;;;;;;;;5053387;28;20230;-86
2024/01/27 10:54:14;;;;;;;11.37;2.90;;;;;;;;;;5054469;28;20203;-87
2024/01/27 10:56:41;;;;;;;3.03;2.57;;;;;;;;;;5053701;28;20229;-87
2024/01/27 10:59:10;;;;;;;4.67;2.80;;;;;;;;;;5054137;28;20206;-86
2024/01/27 11:01:38;;;;;;;13.93;2.80;;;;;;;;;;5053570;28;20242;-86
2024/01/27 11:04:07;;;;;;;4.67;3.03;;;;;;;;;;5045816;28;20202;-86
2024/01/27 11:06:35;;;;;;;4.70;3.07;;;;;;;;;;5053385;28;20281;-86
2024/01/27 11:09:05;;;;;;;6.10;2.57;;;;;;;;;;5053706;28;20261;-86
2024/01/27 11:11:32;;;;;;;9.23;3.00;;;;;;;;;;5053914;28;20237;-86
2024/01/27 11:13:59;;;;;;;6.40;2.83;;;;;;;;;;5054392;28;20205;-86
2024/01/27 11:16:28;;;;;;;8.27;3.03;;;;;;;;;;5056804;28;20237;-86
2024/01/27 11:18:55;;;;;;;3.93;2.83;;;;;;;;;;5055078;28;20283;-88
2024/01/27 11:21:22;;;;;;;12.60;3.30;;;;;;;;;;5045476;28;20239;-86
2024/01/27 11:23:52;;;;;;;5.33;2.87;;;;;;;;;;5044328;28;20217;-82
2024/01/27 11:26:21;;;;;;;9.90;3.27;;;;;;;;;;5051853;28;20230;-82
2024/01/27 11:28:48;;;;;;;8.60;2.73;;;;;;;;;;5051999;28;20231;-81
2024/01/27 11:31:18;;;;;;;11.70;2.80;;;;;;;;;;5051360;28;20229;-82
2024/01/27 11:33:48;;;;;;;6.90;2.80;;;;;;;;;;5051509;28;21089;-82
2024/01/27 11:36:22;;;;;;;7.53;3.20;;;;;;;;;;5051873;28;20722;-82
2024/01/27 11:38:50;;;;;;;4.10;2.70;;;;;;;;;;5051202;28;20198;-82
2024/01/27 11:41:27;;;;;;;5.57;2.73;;;;;;;;;;5051592;28;20236;-82
2024/01/27 11:43:54;;;;;;;6.53;2.83;;;;;;;;;;5044407;28;20205;-82
2024/01/27 11:46:21;;;;;;;2.77;2.57;;;;;;;;;;5051417;28;20228;-82
2024/01/27 11:48:50;;;;;;;4.97;2.90;;;;;;;;;;5051392;28;20233;-82
2024/01/27 11:51:18;;;;;;;4.23;2.97;;;;;;;;;;5051210;28;20718;-81
2024/01/27 11:53:46;;;;;;;8.30;3.20;;;;;;;;;;5051387;28;20205;-82
2024/01/27 11:56:13;;;;;;;5.67;3.10;;;;;;;;;;5050077;28;20225;-82
2024/01/27 11:58:47;;;;;;;2.40;2.20;;;;;;;;;;5051592;28;20209;-82
2024/01/27 12:01:14;;;;;;;8.47;2.80;;;;;;;;;;5051116;28;20242;-81
2024/01/27 12:03:42;;;;;;;6.43;2.80;;;;;;;;;;5051960;28;20256;-81
2024/01/27 12:06:10;;;;;;;2.80;2.60;;;;;;;;;;5051324;28;20321;-81
2024/01/27 12:08:37;;;;;;;12.30;3.40;;;;;;;;;;5051230;28;20230;-81
2024/01/27 12:11:04;;;;;;;10.37;3.03;;;;;;;;;;5051307;28;20641;-81
2024/01/27 12:13:31;;;;;;;9.70;3.10;;;;;;;;;;5051648;28;20209;-81
2024/01/27 12:15:58;;;;;;;8.67;3.47;;;;;;;;;;5051259;28;20229;-81
2024/01/27 12:18:26;;;;;;;7.83;3.00;;;;;;;;;;5051731;28;20202;-81
2024/01/27 12:20:56;;;;;;;6.27;3.13;;;;;;;;;;5042721;28;20261;-82
2024/01/27 12:23:24;;;;;;;6.20;2.97;;;;;;;;;;5051374;28;20222;-82
2024/01/27 12:25:54;;;;;;;8.43;2.53;;;;;;;;;;5050706;28;20232;-82
2024/01/27 12:28:21;;;;;;;4.73;2.83;;;;;;;;;;5051050;28;20792;-82
2024/01/27 12:30:49;;;;;;;8.73;2.67;;;;;;;;;;5050493;28;20287;-82
2024/01/27 12:33:19;;;;;;;5.30;2.90;;;;;;;;;;5051383;28;20571;-82
2024/01/27 12:35:46;;;;;;;5.03;2.70;;;;;;;;;;5050500;28;20291;-82
2024/01/27 12:38:13;;;;;;;7.00;2.73;;;;;;;;;;5050924;28;20202;-82
2024/01/27 12:40:41;;;;;;;9.33;3.23;;;;;;;;;;5050246;28;20245;-82
2024/01/27 12:43:09;;;;;;;6.37;2.90;;;;;;;;;;5051070;28;20198;-83
2024/01/27 12:45:37;;;;;;;6.90;3.10;;;;;;;;;;5050806;28;20238;-82
2024/01/27 12:48:05;;;;;;;8.93;3.10;;;;;;;;;;5051165;28;20205;-82
2024/01/27 12:50:33;;;;;;;13.67;3.30;;;;;;;;;;5050597;28;20257;-82
2024/01/27 12:53:00;;;;;;;7.57;2.60;;;;;;;;;;5051004;28;20243;-82
2024/01/27 12:55:28;;;;;;;7.83;2.30;;;;;;;;;;5050545;28;20237;-82
2024/01/27 12:57:57;;;;;;;6.73;2.63;;;;;;;;;;5050844;28;20206;-82
2024/01/27 13:00:24;;;;;;;6.00;2.57;;;;;;;;;;5050458;28;20230;-82
2024/01/27 13:02:51;;;;;;;2.83;2.40;;;;;;;;;;5050624;28;20264;-82
2024/01/27 13:05:18;;;;;;;6.33;3.10;;;;;;;;;;5050656;28;20682;-82
2024/01/27 13:07:45;;;;;;;5.53;2.70;;;;;;;;;;5052135;28;20220;-82
2024/01/27 13:10:12;;;;;;;6.33;2.50;;;;;;;;;;5054583;28;20222;-82
2024/01/27 13:12:39;;;;;;;2.40;2.13;;;;;;;;;;5054634;28;20226;-82
2024/01/27 13:15:08;;;;;;;7.93;2.83;;;;;;;;;;5054180;28;20272;-83
2024/01/27 13:17:35;;;;;;;7.50;2.50;;;;;;;;;;5054210;28;20210;-82
2024/01/27 13:20:02;;;;;;;5.70;2.03;;;;;;;;;;5053622;28;20668;-82
2024/01/27 13:22:29;;;;;;;7.67;2.73;;;;;;;;;;5054049;28;20249;-82
2024/01/27 13:24:57;;;;;;;7.63;2.60;;;;;;;;;;5054290;28;20214;-82
2024/01/27 13:27:24;;;;;;;4.10;2.23;;;;;;;;;;5053663;28;20230;-82
2024/01/27 13:29:51;;;;;;;4.10;2.37;;;;;;;;;;5053919;28;20293;-82
2024/01/27 13:32:20;;;;;;;7.50;2.47;;;;;;;;;;5053501;28;20237;-83
2024/01/27 13:34:47;;;;;;;6.33;2.07;;;;;;;;;;5054111;28;20210;-82
2024/01/27 13:37:15;;;;;;;5.93;2.47;;;;;;;;;;5053464;28;20225;-83
2024/01/27 13:39:42;;;;;;;4.43;2.00;;;;;;;;;;5053622;28;20202;-83
2024/01/27 13:42:10;;;;;;;5.03;2.30;;;;;;;;;;5053685;28;20226;-82
2024/01/27 13:44:37;;;;;;;5.37;2.70;;;;;;;;;;5053917;28;20637;-82
2024/01/27 13:47:04;;;;;;;7.73;2.23;;;;;;;;;;5053356;28;20236;-82
2024/01/27 13:49:33;;;;;;;5.67;2.37;;;;;;;;;;5053569;28;20226;-83
2024/01/27 13:52:00;;;;;;;6.70;2.77;;;;;;;;;;5045070;28;20313;-83
2024/01/27 13:54:27;;;;;;;7.60;2.70;;;;;;;;;;5053850;28;20203;-82
2024/01/27 13:56:54;;;;;;;7.80;2.43;;;;;;;;;;5053002;28;20244;-83
2024/01/27 13:59:21;;;;;;;7.87;2.50;;;;;;;;;;5053219;28;20652;-82
2024/01/27 14:01:48;;;;;;;4.00;2.27;;;;;;;;;;5052934;28;20245;-82
2024/01/27 14:04:16;;;;;;;4.93;2.27;;;;;;;;;;5053665;28;20209;-83
2024/01/27 14:06:44;;;;;;;8.90;2.67;;;;;;;;;;5052751;28;20236;-82
2024/01/27 14:09:13;;;;;;;6.53;2.50;;;;;;;;;;5053265;28;20225;-83
2024/01/27 14:11:40;;;;;;;10.10;2.57;;;;;;;;;;5052700;28;20244;-82
2024/01/27 14:14:07;;;;;;;7.40;2.60;;;;;;;;;;5053423;28;20202;-83
2024/01/27 14:16:34;;;;;;;3.13;2.40;;;;;;;;;;5052667;28;20241;-82
2024/01/27 14:19:01;;;;;;;4.37;2.57;;;;;;;;;;5052420;28;20198;-82
2024/01/27 14:21:28;;;;;;;4.47;2.57;;;;;;;;;;5052448;28;20292;-82
2024/01/27 14:24:00;;;;;;;9.33;2.60;;;;;;;;;;5052869;28;20206;-82
2024/01/27 14:26:28;;;;;;;6.00;2.43;;;;;;;;;;5052745;28;20237;-82
2024/01/27 14:28:55;;;;;;;9.60;2.50;;;;;;;;;;5052660;28;20234;-82
2024/01/27 14:31:22;;;;;;;4.10;2.70;;;;;;;;;;5052454;28;20257;-82
2024/01/27 14:33:50;;;;;;;6.33;2.60;;;;;;;;;;5052575;28;20775;-82
2024/01/27 14:36:17;;;;;;;3.00;2.30;;;;;;;;;;5052477;28;20233;-82
2024/01/27 14:38:44;;;;;;;7.97;2.20;;;;;;;;;;5052643;28;20264;-82
2024/01/27 14:41:12;;;;;;;2.40;1.90;;;;;;;;;;5052117;28;20723;-82
2024/01/27 14:43:39;;;;;;;3.43;2.23;;;;;;;;;;5052842;28;20279;-83